createdAt,value
2023-10-29T00:00:30.197Z,96842.00
2023-10-29T00:05:58.427Z,96836.00
2023-10-29T00:11:44.208Z,96827.00
2023-10-29T00:17:31.880Z,96822.00
2023-10-29T00:23:14.631Z,96819.00
2023-10-29T00:28:48.230Z,96821.00
2023-10-29T00:34:16.292Z,96826.00
2023-10-29T00:39:45.325Z,96811.00
2023-10-29T00:45:10.660Z,96812.00
2023-10-29T00:50:45.026Z,96795.00
2023-10-29T00:56:31.046Z,96801.00
2023-10-29T01:02:26.141Z,96799.00
2023-10-29T01:07:49.137Z,96811.00
2023-10-29T01:13:10.436Z,96803.00
2023-10-29T01:18:51.715Z,96799.00
2023-10-29T01:24:23.335Z,96796.00
2023-10-29T01:29:45.401Z,96802.00
2023-10-29T01:35:07.408Z,96810.00
2023-10-29T01:40:28.772Z,96787.00
2023-10-29T01:45:57.624Z,96795.00
2023-10-29T01:51:39.764Z,96794.00
2023-10-29T01:57:19.680Z,96803.00
2023-10-29T02:03:14.804Z,96791.00
2023-10-29T02:08:46.696Z,96801.00
2023-10-29T02:14:17.976Z,96790.00
2023-10-29T02:19:39.865Z,96794.00
2023-10-29T02:25:01.141Z,96792.00
2023-10-29T02:30:22.839Z,96779.00
2023-10-29T02:35:44.370Z,96773.00
2023-10-29T02:41:35.412Z,96770.00
2023-10-29T02:47:21.130Z,96768.00
2023-10-29T02:53:03.826Z,96758.00
2023-10-29T02:58:43.051Z,96757.00
2023-10-29T03:04:33.194Z,96763.00
2023-10-29T03:09:58.289Z,96757.00
2023-10-29T03:15:19.876Z,96764.00
2023-10-29T03:20:41.935Z,96747.00
2023-10-29T03:26:35.461Z,96745.00
2023-10-29T03:32:21.372Z,96753.00
2023-10-29T03:38:12.264Z,96752.00
2023-10-29T03:43:51.532Z,96746.00
2023-10-29T03:49:23.371Z,96752.00
2023-10-29T03:54:45.693Z,96745.00
2023-10-29T04:00:11.982Z,96731.00
2023-10-29T04:05:48.084Z,96727.00
2023-10-29T04:11:36.143Z,96726.00
2023-10-29T04:16:59.651Z,96723.00
2023-10-29T04:22:37.120Z,96707.00
2023-10-29T04:28:09.091Z,96700.00
2023-10-29T04:33:46.337Z,96697.00
2023-10-29T04:39:27.310Z,96692.00
2023-10-29T04:44:50.865Z,96688.00
2023-10-29T04:50:12.243Z,96692.00
2023-10-29T04:55:33.775Z,96691.00
2023-10-29T05:00:55.439Z,96680.00
2023-10-29T05:06:48.756Z,96689.00
2023-10-29T05:12:11.613Z,96669.00
2023-10-29T05:17:48.791Z,96676.00
2023-10-29T05:23:30.349Z,96673.00
2023-10-29T05:28:55.741Z,96646.00
2023-10-29T05:34:23.387Z,96645.00
2023-10-29T05:39:45.698Z,96636.00
2023-10-29T05:45:08.310Z,96628.00
2023-10-29T05:50:30.185Z,96624.00
2023-10-29T05:55:59.439Z,96609.00
2023-10-29T06:01:29.457Z,96621.00
2023-10-29T06:07:14.455Z,96612.00
2023-10-29T06:12:57.136Z,96620.00
2023-10-29T06:18:37.996Z,96618.00
2023-10-29T06:24:16.594Z,96616.00
2023-10-29T06:29:39.765Z,96621.00
2023-10-29T06:35:01.027Z,96632.00
2023-10-29T06:40:22.852Z,96643.00
2023-10-29T06:45:44.111Z,96647.00
2023-10-29T06:51:34.540Z,96646.00
2023-10-29T06:57:23.787Z,96661.00
2023-10-29T07:03:05.170Z,96670.00
2023-10-29T07:08:39.319Z,96675.00
2023-10-29T07:14:19.108Z,96687.00
2023-10-29T07:19:41.555Z,96693.00
2023-10-29T07:25:05.088Z,96696.00
2023-10-29T07:30:28.591Z,96702.00
2023-10-29T07:35:50.089Z,96688.00
2023-10-29T07:41:37.487Z,96692.00
2023-10-29T07:53:10.158Z,96692.00
2023-10-29T07:58:53.265Z,96697.00
2023-10-29T08:04:33.960Z,96694.00
2023-10-29T08:10:09.742Z,96696.00
2023-10-29T08:15:31.202Z,96690.00
2023-10-29T08:21:00.167Z,96684.00
2023-10-29T08:26:36.005Z,96699.00
2023-10-29T08:32:15.506Z,96690.00
2023-10-29T08:38:10.601Z,96690.00
2023-10-29T08:43:51.092Z,96699.00
2023-10-29T08:49:21.011Z,96711.00
2023-10-29T08:54:43.624Z,96710.00
2023-10-29T09:00:05.418Z,96703.00
2023-10-29T09:05:40.292Z,96722.00
2023-10-29T09:11:34.159Z,96723.00
2023-10-29T09:17:18.407Z,96733.00
2023-10-29T09:23:01.527Z,96740.00
2023-10-29T09:28:43.656Z,96749.00
2023-10-29T09:34:12.989Z,96760.00
2023-10-29T09:39:41.813Z,96761.00
2023-10-29T09:45:05.490Z,96758.00
2023-10-29T09:50:29.990Z,96789.00
2023-10-29T09:56:00.229Z,96789.00
2023-10-29T10:01:44.621Z,96789.00
2023-10-29T10:07:32.929Z,96771.00
2023-10-29T10:13:14.304Z,96757.00
2023-10-29T10:19:04.443Z,96743.00
2023-10-29T10:24:45.299Z,96730.00
2023-10-29T10:30:33.042Z,96734.00
2023-10-29T10:36:15.938Z,96751.00
2023-10-29T10:42:00.451Z,96756.00
2023-10-29T10:47:45.800Z,96752.00
2023-10-29T10:53:35.053Z,96752.00
2023-10-29T10:59:14.731Z,96759.00
2023-10-29T11:05:08.613Z,96729.00
2023-10-29T11:10:53.319Z,96733.00
2023-10-29T11:17:04.820Z,96722.00
2023-10-29T11:22:49.700Z,96724.00
2023-10-29T11:28:37.790Z,96723.00
2023-10-29T11:34:04.168Z,96720.00
2023-10-29T11:39:33.436Z,96699.00
2023-10-29T11:45:37.912Z,96692.00
2023-10-29T11:51:42.822Z,96689.00
2023-10-29T11:57:38.366Z,96690.00
2023-10-29T12:03:21.542Z,96700.00
2023-10-29T12:08:51.323Z,96691.00
2023-10-29T12:14:19.811Z,96716.00
2023-10-29T12:19:44.950Z,96719.00
2023-10-29T12:25:09.820Z,96726.00
2023-10-29T12:30:47.761Z,96722.00
2023-10-29T12:36:31.337Z,96722.00
2023-10-29T12:42:26.153Z,96721.00
2023-10-29T12:48:25.568Z,96705.00
2023-10-29T12:53:53.283Z,96718.00
2023-10-29T12:59:20.109Z,96712.00
2023-10-29T13:04:58.207Z,96700.00
2023-10-29T13:10:20.467Z,96697.00
2023-10-29T13:15:43.144Z,96698.00
2023-10-29T13:21:30.766Z,96698.00
2023-10-29T13:27:08.310Z,96694.00
2023-10-29T13:32:54.866Z,96701.00
2023-10-29T13:38:33.852Z,96708.00
2023-10-29T13:44:07.443Z,96682.00
2023-10-29T13:49:29.828Z,96675.00
2023-10-29T13:54:50.974Z,96676.00
2023-10-29T14:00:14.068Z,96689.00
2023-10-29T14:06:01.236Z,96690.00
2023-10-29T14:11:41.334Z,96677.00
2023-10-29T14:17:25.586Z,96656.00
2023-10-29T14:22:48.219Z,96653.00
2023-10-29T14:28:22.336Z,96644.00
2023-10-29T14:33:48.201Z,96620.00
2023-10-29T14:39:15.686Z,96612.00
2023-10-29T14:44:37.698Z,96609.00
2023-10-29T14:49:59.480Z,96605.00
2023-10-29T14:55:21.154Z,96599.00
2023-10-29T15:00:44.017Z,96582.00
2023-10-29T15:06:37.347Z,96609.00
2023-10-29T15:12:25.728Z,96611.00
2023-10-29T15:18:05.722Z,96618.00
2023-10-29T15:23:54.182Z,96606.00
2023-10-29T15:29:24.558Z,96612.00
2023-10-29T15:34:46.815Z,96626.00
2023-10-29T15:40:08.850Z,96628.00
2023-10-29T15:45:30.474Z,96630.00
2023-10-29T15:51:05.003Z,96625.00
2023-10-29T15:56:46.722Z,96623.00
2023-10-29T16:02:23.793Z,96616.00
2023-10-29T16:07:49.814Z,96614.00
2023-10-29T16:13:25.664Z,96612.00
2023-10-29T16:18:56.584Z,96624.00
2023-10-29T16:24:24.225Z,96609.00
2023-10-29T16:29:49.220Z,96615.00
2023-10-29T16:35:10.815Z,96610.00
2023-10-29T16:40:34.941Z,96616.00
2023-10-29T16:46:32.857Z,96627.00
2023-10-29T16:52:15.587Z,96629.00
2023-10-29T16:57:52.507Z,96634.00
2023-10-29T17:03:36.370Z,96620.00
2023-10-29T17:09:16.777Z,96628.00
2023-10-29T17:14:38.989Z,96630.00
2023-10-29T17:20:00.435Z,96650.00
2023-10-29T17:25:22.011Z,96649.00
2023-10-29T17:30:43.514Z,96650.00
2023-10-29T17:36:36.602Z,96635.00
2023-10-29T17:42:14.891Z,96655.00
2023-10-29T17:48:02.166Z,96664.00
2023-10-29T17:53:39.735Z,96657.00
2023-10-29T17:59:10.046Z,96634.00
2023-10-29T18:04:32.304Z,96656.00
2023-10-29T18:09:53.786Z,96649.00
2023-10-29T18:15:15.738Z,96654.00
2023-10-29T18:20:37.424Z,96661.00
2023-10-29T18:26:14.139Z,96684.00
2023-10-29T18:32:02.552Z,96683.00
2023-10-29T18:37:44.889Z,96692.00
2023-10-29T18:43:27.791Z,96714.00
2023-10-29T18:49:06.565Z,96751.00
2023-10-29T18:54:29.624Z,96804.00
2023-10-29T18:59:51.930Z,96817.00
2023-10-29T19:05:40.692Z,96808.00
2023-10-29T19:11:40.568Z,96805.00
2023-10-29T19:17:22.466Z,96834.00
2023-10-29T19:23:00.634Z,96857.00
2023-10-29T19:28:40.071Z,96877.00
2023-10-29T19:34:15.857Z,96890.00
2023-10-29T19:39:37.878Z,96905.00
2023-10-29T19:44:59.636Z,96926.00
2023-10-29T19:50:21.086Z,96924.00
2023-10-29T19:55:42.623Z,96949.00
2023-10-29T20:01:06.336Z,96962.00
2023-10-29T20:06:56.524Z,96943.00
2023-10-29T20:12:24.197Z,96941.00
2023-10-29T20:18:12.224Z,96942.00
2023-10-29T20:23:51.328Z,96942.00
2023-10-29T20:29:25.374Z,96949.00
2023-10-29T20:34:47.903Z,96952.00
2023-10-29T20:40:09.768Z,96955.00
2023-10-29T20:45:31.207Z,96941.00
2023-10-29T20:51:00.818Z,96922.00
2023-10-29T20:56:37.049Z,96926.00
2023-10-29T21:02:21.194Z,96926.00
2023-10-29T21:07:50.886Z,96942.00
2023-10-29T21:13:25.610Z,96929.00
2023-10-29T21:19:01.510Z,96930.00
2023-10-29T21:24:27.458Z,96913.00
2023-10-29T21:29:49.363Z,96913.00
2023-10-29T21:35:12.243Z,96901.00
2023-10-29T21:40:34.898Z,96910.00
2023-10-29T21:46:35.033Z,96922.00
2023-10-29T21:52:27.206Z,96897.00
2023-10-29T21:58:07.186Z,96873.00
2023-10-29T22:03:47.523Z,96869.00
2023-10-29T22:09:10.747Z,96861.00
2023-10-29T22:14:58.139Z,96863.00
2023-10-29T22:20:24.196Z,96867.00
2023-10-29T22:25:47.568Z,96871.00
2023-10-29T22:31:52.896Z,96876.00
2023-10-29T22:37:29.631Z,96880.00
2023-10-29T22:43:13.075Z,96865.00
2023-10-29T22:54:30.038Z,96858.00
2023-10-29T22:59:52.943Z,96890.00
2023-10-29T23:05:43.102Z,96863.00
2023-10-29T23:11:27.691Z,96889.00
2023-10-29T23:17:10.946Z,96904.00
2023-10-29T23:22:54.899Z,96889.00
2023-10-29T23:28:38.095Z,96873.00
2023-10-29T23:34:00.539Z,96857.00
2023-10-29T23:39:23.137Z,96878.00
2023-10-29T23:44:44.771Z,96875.00
2023-10-29T23:50:06.745Z,96866.00
2023-10-29T23:55:30.730Z,96843.00
